createdAt,value
2022-11-10T00:00:26.588Z,26.90
2022-11-10T00:02:17.931Z,27.67
2022-11-10T00:04:09.334Z,25.70
2022-11-10T00:06:03.812Z,26.93
2022-11-10T00:07:55.179Z,26.10
2022-11-10T00:09:46.567Z,26.57
2022-11-10T00:11:37.966Z,25.10
2022-11-10T00:13:33.798Z,25.60
2022-11-10T00:15:42.991Z,23.70
2022-11-10T00:17:36.162Z,23.83
2022-11-10T00:19:28.505Z,24.20
2022-11-10T00:21:20.288Z,25.67
2022-11-10T00:23:12.120Z,24.60
2022-11-10T00:25:03.798Z,26.77
2022-11-10T00:26:56.070Z,26.20
2022-11-10T00:28:48.955Z,26.43
2022-11-10T00:30:43.377Z,24.70
2022-11-10T00:32:38.399Z,26.03
2022-11-10T00:34:30.013Z,25.03
2022-11-10T00:36:21.444Z,26.90
2022-11-10T00:38:12.845Z,28.83
2022-11-10T00:40:04.356Z,29.57
2022-11-10T00:41:56.227Z,30.13
2022-11-10T00:43:49.469Z,30.40
2022-11-10T00:45:44.123Z,31.53
2022-11-10T00:47:35.506Z,29.47
2022-11-10T00:49:26.884Z,28.37
2022-11-10T00:51:23.330Z,27.37
2022-11-10T00:53:15.163Z,27.13
2022-11-10T00:55:07.407Z,29.20
2022-11-10T00:56:58.965Z,28.03
2022-11-10T00:58:52.065Z,26.83
2022-11-10T01:00:44.066Z,28.00
2022-11-10T01:02:35.774Z,27.70
2022-11-10T01:04:27.277Z,28.70
2022-11-10T01:06:20.581Z,28.13
2022-11-10T01:08:12.622Z,29.10
2022-11-10T01:10:04.628Z,27.97
2022-11-10T01:11:56.354Z,29.37
2022-11-10T01:13:48.564Z,31.27
2022-11-10T01:15:42.592Z,30.53
2022-11-10T01:17:34.433Z,31.60
2022-11-10T01:19:26.124Z,31.00
2022-11-10T01:21:17.812Z,30.63
2022-11-10T01:23:09.240Z,32.20
2022-11-10T01:25:00.728Z,31.87
2022-11-10T01:26:52.251Z,29.90
2022-11-10T01:28:43.758Z,29.60
2022-11-10T01:30:35.422Z,31.23
2022-11-10T01:32:28.227Z,31.13
2022-11-10T01:34:20.150Z,28.50
2022-11-10T01:36:12.284Z,27.33
2022-11-10T01:38:03.974Z,28.37
2022-11-10T01:39:55.615Z,29.43
2022-11-10T01:41:47.488Z,29.23
2022-11-10T01:43:39.735Z,26.17
2022-11-10T01:45:47.562Z,25.37
2022-11-10T01:47:40.450Z,30.63
2022-11-10T01:49:33.686Z,31.40
2022-11-10T01:51:29.207Z,32.27
2022-11-10T01:53:26.405Z,31.93
2022-11-10T01:55:19.028Z,33.13
2022-11-10T01:57:14.248Z,34.80
2022-11-10T01:59:10.895Z,34.90
2022-11-10T02:01:02.590Z,30.27
2022-11-10T02:03:00.991Z,32.33
2022-11-10T02:04:53.233Z,32.10
2022-11-10T02:06:46.895Z,30.80
2022-11-10T02:08:38.566Z,32.23
2022-11-10T02:10:30.361Z,31.23
2022-11-10T02:12:36.970Z,30.37
2022-11-10T02:14:28.704Z,31.33
2022-11-10T02:16:20.832Z,31.80
2022-11-10T02:18:13.953Z,31.03
2022-11-10T02:20:08.122Z,31.10
2022-11-10T02:22:00.990Z,28.53
2022-11-10T02:23:53.602Z,27.00
2022-11-10T02:25:44.925Z,28.20
2022-11-10T02:27:36.399Z,29.47
2022-11-10T02:29:28.148Z,31.40
2022-11-10T02:31:19.508Z,27.27
2022-11-10T02:33:11.195Z,23.43
2022-11-10T02:35:02.776Z,23.93
2022-11-10T02:36:54.284Z,24.80
2022-11-10T02:38:46.938Z,23.83
2022-11-10T02:40:38.562Z,22.83
2022-11-10T02:42:29.984Z,20.27
2022-11-10T02:44:21.688Z,23.20
2022-11-10T02:46:13.624Z,25.30
2022-11-10T02:48:05.613Z,26.00
2022-11-10T02:49:57.160Z,23.90
2022-11-10T02:51:48.553Z,24.90
2022-11-10T02:53:39.972Z,25.90
2022-11-10T02:55:32.915Z,24.93
2022-11-10T02:57:24.612Z,25.27
2022-11-10T02:59:16.397Z,25.20
2022-11-10T03:01:08.677Z,24.17
2022-11-10T03:03:01.977Z,26.80
2022-11-10T03:04:53.432Z,23.63
2022-11-10T03:06:45.142Z,21.77
2022-11-10T03:08:37.810Z,8.10
2022-11-10T03:10:30.848Z,6.40
2022-11-10T03:12:31.254Z,4.70
2022-11-10T03:14:22.765Z,3.47
2022-11-10T03:16:14.130Z,3.80
2022-11-10T03:18:06.478Z,3.33
2022-11-10T03:19:57.844Z,16.77
2022-11-10T03:21:49.218Z,18.43
2022-11-10T03:23:41.074Z,20.47
2022-11-10T03:25:33.591Z,24.50
2022-11-10T03:27:26.343Z,25.13
2022-11-10T03:29:18.090Z,26.57
2022-11-10T03:31:09.471Z,28.30
2022-11-10T03:33:00.897Z,27.17
2022-11-10T03:34:52.511Z,25.40
2022-11-10T03:36:44.016Z,26.17
2022-11-10T03:38:35.534Z,23.17
2022-11-10T03:40:27.692Z,22.77
2022-11-10T03:42:19.447Z,24.77
2022-11-10T03:44:12.319Z,26.00
2022-11-10T03:46:04.208Z,27.77
2022-11-10T03:47:55.803Z,26.50
2022-11-10T03:49:47.794Z,24.33
2022-11-10T03:51:39.280Z,23.50
2022-11-10T03:53:30.626Z,20.00
2022-11-10T03:55:22.075Z,16.53
2022-11-10T03:57:13.555Z,13.47
2022-11-10T03:59:05.180Z,11.03
2022-11-10T04:00:58.794Z,8.23
2022-11-10T04:02:50.460Z,4.93
2022-11-10T04:04:59.114Z,4.30
2022-11-10T04:07:08.052Z,3.43
2022-11-10T04:09:02.405Z,3.07
2022-11-10T04:10:53.841Z,2.77
2022-11-10T04:13:02.506Z,2.50
2022-11-10T04:15:11.639Z,7.57
2022-11-10T04:17:05.175Z,12.60
2022-11-10T04:18:56.630Z,17.40
2022-11-10T04:20:48.460Z,18.17
2022-11-10T04:22:57.481Z,18.60
2022-11-10T04:24:49.142Z,16.90
2022-11-10T04:26:40.580Z,16.90
2022-11-10T04:28:32.161Z,15.33
2022-11-10T04:30:23.879Z,14.23
2022-11-10T04:32:16.623Z,13.23
2022-11-10T04:34:11.087Z,16.17
2022-11-10T04:36:02.714Z,16.83
2022-11-10T04:37:54.179Z,21.90
2022-11-10T04:39:45.692Z,21.93
2022-11-10T04:41:37.487Z,22.20
2022-11-10T04:43:27.879Z,21.07
2022-11-10T04:45:19.338Z,21.67
2022-11-10T04:47:12.099Z,22.23
2022-11-10T04:49:06.176Z,18.67
2022-11-10T04:50:58.083Z,18.10
2022-11-10T04:52:49.600Z,18.43
2022-11-10T04:54:40.967Z,16.27
2022-11-10T04:56:32.469Z,16.03
2022-11-10T04:58:23.922Z,16.57
2022-11-10T05:00:17.471Z,18.20
2022-11-10T05:02:09.061Z,19.57
2022-11-10T05:04:01.129Z,18.73
2022-11-10T05:05:53.909Z,15.97
2022-11-10T05:07:48.910Z,19.40
2022-11-10T05:09:40.713Z,22.20
2022-11-10T05:11:32.335Z,21.33
2022-11-10T05:13:24.627Z,19.63
2022-11-10T05:15:16.418Z,18.23
2022-11-10T05:17:08.042Z,16.97
2022-11-10T05:19:00.289Z,13.70
2022-11-10T05:20:53.850Z,13.57
2022-11-10T05:23:07.203Z,11.97
2022-11-10T05:24:58.870Z,9.27
2022-11-10T05:26:50.310Z,9.20
2022-11-10T05:28:43.661Z,8.80
2022-11-10T05:30:35.595Z,7.63
2022-11-10T05:32:26.906Z,8.10
2022-11-10T05:34:18.262Z,7.07
2022-11-10T05:36:12.029Z,8.10
2022-11-10T05:38:03.845Z,11.70
2022-11-10T05:39:55.672Z,12.37
2022-11-10T05:41:47.212Z,10.97
2022-11-10T05:43:38.791Z,11.77
2022-11-10T05:45:30.807Z,13.73
2022-11-10T05:47:22.182Z,15.37
2022-11-10T05:49:13.553Z,16.40
2022-11-10T05:51:05.354Z,12.10
2022-11-10T05:52:58.421Z,13.87
2022-11-10T05:54:50.180Z,14.37
2022-11-10T05:56:41.813Z,15.60
2022-11-10T05:58:33.217Z,17.77
2022-11-10T06:00:27.233Z,16.30
2022-11-10T06:02:19.131Z,17.57
2022-11-10T06:04:11.198Z,16.50
2022-11-10T06:06:02.591Z,17.90
2022-11-10T06:07:54.522Z,16.10
2022-11-10T06:09:48.417Z,14.53
2022-11-10T06:11:40.038Z,14.20
2022-11-10T06:13:31.751Z,12.60
2022-11-10T06:15:23.614Z,11.30
2022-11-10T06:17:15.530Z,10.13
2022-11-10T06:19:07.242Z,9.83
2022-11-10T06:20:58.898Z,10.30
2022-11-10T06:23:01.427Z,9.23
2022-11-10T06:24:54.609Z,9.70
2022-11-10T06:26:46.305Z,10.83
2022-11-10T06:28:37.697Z,11.57
2022-11-10T06:30:30.285Z,11.37
2022-11-10T06:32:21.861Z,11.37
2022-11-10T06:34:13.176Z,12.10
2022-11-10T06:36:04.795Z,12.33
2022-11-10T06:38:01.451Z,15.57
2022-11-10T06:39:54.206Z,12.90
2022-11-10T06:41:45.559Z,11.83
2022-11-10T06:43:37.052Z,12.10
2022-11-10T06:45:29.071Z,13.17
2022-11-10T06:47:20.815Z,15.00
2022-11-10T06:49:12.298Z,15.40
2022-11-10T06:51:04.765Z,16.77
2022-11-10T06:52:56.868Z,14.50
2022-11-10T06:54:48.758Z,14.07
2022-11-10T06:56:42.074Z,12.60
2022-11-10T06:58:33.799Z,11.17
2022-11-10T07:00:26.848Z,11.30
2022-11-10T07:02:18.428Z,11.97
2022-11-10T07:04:25.089Z,11.30
2022-11-10T07:06:17.025Z,10.40
2022-11-10T07:08:10.310Z,9.77
2022-11-10T07:10:06.758Z,9.40
2022-11-10T07:12:00.236Z,10.00
2022-11-10T07:13:51.979Z,8.70
2022-11-10T07:15:43.743Z,9.27
2022-11-10T07:17:40.859Z,9.57
2022-11-10T07:19:32.883Z,9.93
2022-11-10T07:21:24.437Z,9.50
2022-11-10T07:23:16.196Z,9.73
2022-11-10T07:25:08.388Z,10.00
2022-11-10T07:27:01.786Z,9.40
2022-11-10T07:28:53.168Z,10.00
2022-11-10T07:30:44.539Z,9.70
2022-11-10T07:32:36.008Z,9.17
2022-11-10T07:34:27.572Z,9.23
2022-11-10T07:36:19.081Z,8.87
2022-11-10T07:38:13.937Z,8.60
2022-11-10T07:40:06.006Z,10.37
2022-11-10T07:41:57.934Z,10.00
2022-11-10T07:43:50.846Z,8.93
2022-11-10T07:45:42.543Z,9.43
2022-11-10T07:47:34.063Z,8.07
2022-11-10T07:49:25.618Z,7.23
2022-11-10T07:51:17.115Z,6.80
2022-11-10T07:53:10.470Z,5.37
2022-11-10T07:55:02.123Z,2.90
2022-11-10T07:56:54.219Z,2.10
2022-11-10T07:58:47.751Z,3.77
2022-11-10T08:00:41.309Z,2.00
2022-11-10T08:02:32.776Z,1.80
2022-11-10T08:04:24.339Z,2.20
2022-11-10T08:06:15.927Z,1.90
2022-11-10T08:08:08.143Z,2.23
2022-11-10T08:09:59.896Z,1.70
2022-11-10T08:11:51.388Z,2.07
2022-11-10T08:13:42.877Z,1.90
2022-11-10T08:15:35.326Z,2.03
2022-11-10T08:17:28.542Z,1.83
2022-11-10T08:19:20.306Z,2.30
2022-11-10T08:21:11.854Z,2.20
2022-11-10T08:23:05.420Z,2.10
2022-11-10T08:24:57.157Z,1.87
2022-11-10T08:26:48.693Z,3.10
2022-11-10T08:28:40.168Z,2.00
2022-11-10T08:30:32.282Z,2.00
2022-11-10T08:32:23.824Z,2.00
2022-11-10T08:34:16.542Z,2.70
2022-11-10T08:36:09.041Z,1.90
2022-11-10T08:38:09.437Z,2.30
2022-11-10T08:40:01.566Z,2.00
2022-11-10T08:41:53.034Z,2.30
2022-11-10T08:43:44.688Z,1.80
2022-11-10T08:45:36.835Z,2.37
2022-11-10T08:47:28.520Z,2.50
2022-11-10T08:49:21.927Z,2.23
2022-11-10T08:51:13.448Z,2.00
2022-11-10T08:53:06.687Z,2.13
2022-11-10T08:54:58.501Z,1.93
2022-11-10T08:56:50.096Z,1.73
2022-11-10T08:58:50.195Z,2.00
2022-11-10T09:00:45.784Z,1.87
2022-11-10T09:02:37.185Z,1.70
2022-11-10T09:04:29.893Z,1.80
2022-11-10T09:06:21.925Z,1.90
2022-11-10T09:08:14.144Z,1.80
2022-11-10T09:10:08.120Z,1.70
2022-11-10T09:12:00.356Z,1.87
2022-11-10T09:13:52.233Z,1.83
2022-11-10T09:15:44.802Z,1.80
2022-11-10T09:17:36.461Z,2.00
2022-11-10T09:19:29.848Z,1.90
2022-11-10T09:21:21.760Z,1.80
2022-11-10T09:23:14.873Z,2.10
2022-11-10T09:25:07.166Z,1.73
2022-11-10T09:26:59.102Z,1.87
2022-11-10T09:28:51.350Z,1.67
2022-11-10T09:30:43.306Z,1.50
2022-11-10T09:32:35.041Z,1.87
2022-11-10T09:34:27.039Z,1.70
2022-11-10T09:36:20.588Z,1.90
2022-11-10T09:38:12.950Z,1.80
2022-11-10T09:40:05.757Z,1.80
2022-11-10T09:41:59.216Z,1.87
2022-11-10T09:43:57.527Z,1.77
2022-11-10T09:45:50.875Z,1.70
2022-11-10T09:47:57.173Z,1.90
2022-11-10T09:49:52.353Z,1.67
2022-11-10T09:51:48.447Z,1.77
2022-11-10T09:53:49.455Z,1.43
2022-11-10T09:55:44.434Z,1.80
2022-11-10T09:57:36.915Z,1.80
2022-11-10T09:59:29.849Z,2.10
2022-11-10T10:01:29.736Z,1.90
2022-11-10T10:03:24.503Z,4.93
2022-11-10T10:05:35.836Z,2.00
2022-11-10T10:07:31.107Z,1.90
2022-11-10T10:09:26.705Z,5.43
2022-11-10T10:11:24.144Z,2.10
2022-11-10T10:13:29.523Z,2.00
2022-11-10T10:15:25.936Z,1.80
2022-11-10T10:17:24.777Z,2.57
2022-11-10T10:19:22.209Z,2.20
2022-11-10T10:21:26.855Z,1.97
2022-11-10T10:23:40.416Z,1.67
2022-11-10T10:25:35.777Z,4.00
2022-11-10T10:27:29.059Z,2.53
2022-11-10T10:29:22.903Z,2.20
2022-11-10T10:31:16.897Z,1.80
2022-11-10T10:33:15.552Z,1.80
2022-11-10T10:35:08.167Z,1.67
2022-11-10T10:37:00.079Z,2.07
2022-11-10T10:38:55.149Z,2.03
2022-11-10T10:40:48.560Z,1.70
2022-11-10T10:42:41.178Z,1.80
2022-11-10T10:44:32.891Z,1.80
2022-11-10T10:46:28.331Z,1.90
2022-11-10T10:48:26.735Z,2.07
2022-11-10T10:50:24.095Z,1.77
2022-11-10T10:52:16.722Z,1.90
2022-11-10T10:54:23.984Z,1.90
2022-11-10T10:56:19.758Z,2.07
2022-11-10T10:58:21.294Z,2.17
2022-11-10T11:00:20.491Z,1.67
2022-11-10T11:02:23.649Z,1.63
2022-11-10T11:04:28.217Z,1.70
2022-11-10T11:06:21.780Z,1.67
2022-11-10T11:08:19.930Z,2.10
2022-11-10T11:10:20.489Z,1.70
2022-11-10T11:12:14.863Z,1.90
2022-11-10T11:14:15.043Z,1.70
2022-11-10T11:16:08.276Z,1.50
2022-11-10T11:18:02.445Z,1.60
2022-11-10T11:19:59.802Z,1.93
2022-11-10T11:21:58.407Z,1.77
2022-11-10T11:24:05.209Z,1.47
2022-11-10T11:25:59.981Z,1.60
2022-11-10T11:28:00.743Z,1.50
2022-11-10T11:30:03.512Z,1.57
2022-11-10T11:32:01.053Z,1.90
2022-11-10T11:33:56.490Z,1.60
2022-11-10T11:35:51.591Z,1.70
2022-11-10T11:37:49.956Z,1.80
2022-11-10T11:39:47.510Z,1.70
2022-11-10T11:41:44.080Z,1.53
2022-11-10T11:43:54.874Z,1.90
2022-11-10T11:45:50.459Z,1.60
2022-11-10T11:47:48.182Z,1.80
2022-11-10T11:49:58.259Z,1.33
2022-11-10T11:51:54.836Z,1.60
2022-11-10T11:53:54.955Z,1.90
2022-11-10T11:55:55.736Z,1.60
2022-11-10T11:57:55.734Z,1.47
2022-11-10T11:59:59.994Z,1.60
2022-11-10T12:01:58.832Z,1.50
2022-11-10T12:03:59.685Z,3.30
2022-11-10T12:05:57.493Z,1.77
2022-11-10T12:07:56.190Z,1.77
2022-11-10T12:09:49.371Z,1.90
2022-11-10T12:11:51.709Z,1.50
2022-11-10T12:13:49.989Z,1.20
2022-11-10T12:15:47.222Z,1.40
2022-11-10T12:17:45.377Z,1.70
2022-11-10T12:19:41.451Z,1.80
2022-11-10T12:21:38.053Z,1.90
2022-11-10T12:23:35.915Z,1.70
2022-11-10T12:25:29.880Z,1.90
2022-11-10T12:27:25.661Z,1.80
2022-11-10T12:29:22.450Z,1.40
2022-11-10T12:31:21.423Z,1.70
2022-11-10T12:33:17.813Z,1.80
2022-11-10T12:35:14.286Z,1.93
2022-11-10T12:37:09.141Z,1.63
2022-11-10T12:39:04.926Z,1.90
2022-11-10T12:40:59.608Z,1.80
2022-11-10T12:42:54.633Z,2.07
2022-11-10T12:44:55.402Z,2.17
2022-11-10T12:46:52.307Z,1.70
2022-11-10T12:48:50.244Z,1.53
2022-11-10T12:50:50.724Z,1.70
2022-11-10T12:52:45.335Z,1.50
2022-11-10T12:54:37.958Z,1.70
2022-11-10T12:56:32.343Z,1.70
2022-11-10T12:58:26.669Z,1.53
2022-11-10T13:00:28.644Z,1.20
2022-11-10T13:02:25.994Z,1.63
2022-11-10T13:04:18.896Z,1.90
2022-11-10T13:06:24.652Z,1.60
2022-11-10T13:08:24.623Z,1.63
2022-11-10T13:10:18.252Z,1.50
2022-11-10T13:12:18.101Z,1.77
2022-11-10T13:14:21.529Z,2.33
2022-11-10T13:16:33.605Z,1.70
2022-11-10T13:18:47.452Z,1.23
2022-11-10T13:20:52.930Z,2.37
2022-11-10T13:22:45.145Z,2.67
2022-11-10T13:24:37.896Z,2.90
2022-11-10T13:26:48.061Z,3.30
2022-11-10T13:29:03.614Z,3.07
2022-11-10T13:30:55.466Z,1.90
2022-11-10T13:32:47.482Z,1.70
2022-11-10T13:34:41.265Z,1.93
2022-11-10T13:36:39.759Z,2.50
2022-11-10T13:38:41.964Z,2.50
2022-11-10T13:40:36.453Z,3.53
2022-11-10T13:42:28.676Z,3.30
2022-11-10T13:44:30.322Z,3.80
2022-11-10T13:46:22.529Z,3.60
2022-11-10T13:48:23.124Z,4.40
2022-11-10T13:50:45.470Z,4.27
2022-11-10T13:52:46.602Z,4.60
2022-11-10T13:54:46.409Z,3.50
2022-11-10T13:56:44.973Z,2.10
2022-11-10T13:58:40.263Z,2.20
2022-11-10T14:00:33.648Z,2.10
2022-11-10T14:02:44.434Z,2.10
2022-11-10T14:04:41.453Z,2.10
2022-11-10T14:06:41.964Z,2.00
2022-11-10T14:08:39.940Z,1.90
2022-11-10T14:10:36.952Z,2.00
2022-11-10T14:12:30.772Z,2.00
2022-11-10T14:14:26.302Z,1.90
2022-11-10T14:16:20.160Z,1.40
2022-11-10T14:18:18.214Z,1.73
2022-11-10T14:20:21.730Z,1.50
2022-11-10T14:22:20.142Z,1.77
2022-11-10T14:24:16.693Z,1.37
2022-11-10T14:26:09.126Z,1.80
2022-11-10T14:28:01.287Z,1.90
2022-11-10T14:30:05.012Z,1.83
2022-11-10T14:31:58.007Z,1.90
2022-11-10T14:33:56.870Z,1.80
2022-11-10T14:35:50.030Z,1.80
2022-11-10T14:37:45.213Z,1.87
2022-11-10T14:39:38.333Z,1.83
2022-11-10T14:41:30.195Z,1.93
2022-11-10T14:43:26.923Z,1.80
2022-11-10T14:45:20.007Z,1.80
2022-11-10T14:47:16.524Z,1.63
2022-11-10T14:49:08.333Z,1.70
2022-11-10T14:51:04.135Z,1.90
2022-11-10T14:52:58.391Z,2.20
2022-11-10T14:54:51.840Z,2.30
2022-11-10T14:56:43.768Z,2.40
2022-11-10T14:58:36.908Z,1.87
2022-11-10T15:00:29.349Z,2.13
2022-11-10T15:02:21.334Z,2.03
2022-11-10T15:04:13.433Z,2.30
2022-11-10T15:06:07.113Z,2.23
2022-11-10T15:07:59.776Z,3.60
2022-11-10T15:10:10.087Z,3.53
2022-11-10T15:12:09.970Z,3.47
2022-11-10T15:14:01.708Z,2.23
2022-11-10T15:15:53.885Z,2.50
2022-11-10T15:17:48.097Z,2.73
2022-11-10T15:19:53.994Z,2.40
2022-11-10T15:21:45.632Z,2.27
2022-11-10T15:23:41.576Z,2.50
2022-11-10T15:25:37.653Z,2.00
2022-11-10T15:27:31.167Z,2.23
2022-11-10T15:29:24.635Z,2.57
2022-11-10T15:31:24.581Z,2.50
2022-11-10T15:33:18.552Z,2.50
2022-11-10T15:35:25.991Z,2.47
2022-11-10T15:37:30.062Z,2.70
2022-11-10T15:39:27.418Z,2.20
2022-11-10T15:41:27.678Z,2.73
2022-11-10T15:43:28.063Z,3.00
2022-11-10T15:45:19.692Z,2.80
2022-11-10T15:47:13.627Z,2.97
2022-11-10T15:49:05.251Z,3.20
2022-11-10T15:50:59.521Z,3.60
2022-11-10T15:52:51.230Z,2.90
2022-11-10T15:54:44.167Z,2.67
2022-11-10T15:56:37.451Z,2.43
2022-11-10T15:58:29.435Z,2.37
2022-11-10T16:00:20.873Z,2.60
2022-11-10T16:02:21.363Z,3.43
2022-11-10T16:04:13.535Z,3.07
2022-11-10T16:06:05.083Z,2.83
2022-11-10T16:07:56.583Z,2.90
2022-11-10T16:09:48.302Z,4.27
2022-11-10T16:11:44.110Z,5.90
2022-11-10T16:13:36.543Z,8.70
2022-11-10T16:15:28.153Z,8.53
2022-11-10T16:17:20.170Z,5.67
2022-11-10T16:19:12.141Z,3.93
2022-11-10T16:21:04.010Z,3.73
2022-11-10T16:22:55.469Z,4.10
2022-11-10T16:24:47.317Z,5.60
2022-11-10T16:26:40.223Z,4.27
2022-11-10T16:28:32.048Z,3.60
2022-11-10T16:30:23.639Z,3.50
2022-11-10T16:32:15.190Z,3.60
2022-11-10T16:34:06.635Z,3.07
2022-11-10T16:35:58.252Z,3.07
2022-11-10T16:37:50.117Z,2.83
2022-11-10T16:39:41.796Z,3.10
2022-11-10T16:41:33.248Z,3.43
2022-11-10T16:43:27.259Z,3.33
2022-11-10T16:45:21.131Z,3.33
2022-11-10T16:47:18.249Z,3.23
2022-11-10T16:49:22.808Z,2.87
2022-11-10T16:51:15.186Z,3.17
2022-11-10T16:53:11.351Z,3.33
2022-11-10T16:55:02.826Z,3.17
2022-11-10T16:56:54.296Z,3.10
2022-11-10T16:58:47.254Z,2.93
2022-11-10T17:00:40.395Z,3.10
2022-11-10T17:02:35.770Z,3.27
2022-11-10T17:04:27.343Z,3.17
2022-11-10T17:06:20.927Z,2.83
2022-11-10T17:08:21.819Z,3.27
2022-11-10T17:10:16.801Z,3.00
2022-11-10T17:12:11.122Z,3.53
2022-11-10T17:14:04.390Z,3.33
2022-11-10T17:16:06.752Z,3.30
2022-11-10T17:18:04.685Z,3.10
2022-11-10T17:19:56.774Z,3.00
2022-11-10T17:21:49.613Z,3.20
2022-11-10T17:23:41.356Z,3.10
2022-11-10T17:25:36.190Z,3.50
2022-11-10T17:27:28.333Z,2.80
2022-11-10T17:29:22.440Z,3.10
2022-11-10T17:31:14.246Z,3.33
2022-11-10T17:33:06.189Z,3.50
2022-11-10T17:34:57.566Z,3.40
2022-11-10T17:36:50.813Z,3.33
2022-11-10T17:38:43.009Z,2.90
2022-11-10T17:40:35.937Z,3.20
2022-11-10T17:42:28.126Z,3.33
2022-11-10T17:44:21.148Z,3.50
2022-11-10T17:46:13.085Z,3.50
2022-11-10T17:48:05.100Z,3.40
2022-11-10T17:49:56.695Z,3.47
2022-11-10T17:51:48.224Z,3.13
2022-11-10T17:53:39.643Z,3.20
2022-11-10T17:55:34.287Z,3.07
2022-11-10T17:57:26.135Z,3.20
2022-11-10T17:59:17.656Z,3.83
2022-11-10T18:01:14.798Z,3.70
2022-11-10T18:03:08.737Z,3.60
2022-11-10T18:05:00.461Z,3.57
2022-11-10T18:06:51.909Z,3.40
2022-11-10T18:08:44.234Z,2.93
2022-11-10T18:10:35.606Z,3.70
2022-11-10T18:12:28.195Z,3.30
2022-11-10T18:14:19.736Z,3.50
2022-11-10T18:16:13.884Z,3.23
2022-11-10T18:18:05.576Z,3.07
2022-11-10T18:19:57.042Z,3.67
2022-11-10T18:21:48.820Z,3.63
2022-11-10T18:23:43.575Z,3.17
2022-11-10T18:25:35.661Z,3.40
2022-11-10T18:27:28.293Z,3.60
2022-11-10T18:29:19.804Z,3.43
2022-11-10T18:31:13.998Z,2.93
2022-11-10T18:33:06.608Z,3.50
2022-11-10T18:34:58.026Z,3.53
2022-11-10T18:36:51.429Z,3.67
2022-11-10T18:38:42.926Z,3.67
2022-11-10T18:40:34.840Z,3.20
2022-11-10T18:42:26.284Z,3.77
2022-11-10T18:44:18.256Z,4.03
2022-11-10T18:46:09.626Z,3.80
2022-11-10T18:48:06.125Z,3.43
2022-11-10T18:49:57.679Z,4.03
2022-11-10T18:51:49.501Z,3.87
2022-11-10T18:53:41.127Z,3.30
2022-11-10T18:55:32.705Z,5.87
2022-11-10T18:57:24.157Z,5.27
2022-11-10T18:59:16.251Z,5.20
2022-11-10T19:01:09.263Z,5.20
2022-11-10T19:03:01.322Z,4.50
2022-11-10T19:04:54.023Z,4.57
2022-11-10T19:06:45.663Z,4.83
2022-11-10T19:08:37.719Z,5.80
2022-11-10T19:10:29.576Z,5.10
2022-11-10T19:12:26.319Z,5.27
2022-11-10T19:14:18.350Z,6.70
2022-11-10T19:16:12.561Z,6.90
2022-11-10T19:18:04.378Z,7.20
2022-11-10T19:19:57.674Z,6.43
2022-11-10T19:21:49.366Z,6.07
2022-11-10T19:23:40.992Z,6.47
2022-11-10T19:25:33.340Z,5.70
2022-11-10T19:27:24.830Z,6.37
2022-11-10T19:29:16.351Z,5.60
2022-11-10T19:31:10.314Z,5.67
2022-11-10T19:33:02.528Z,5.37
2022-11-10T19:34:54.092Z,5.70
2022-11-10T19:36:49.034Z,5.00
2022-11-10T19:38:41.950Z,5.33
2022-11-10T19:40:33.393Z,5.57
2022-11-10T19:42:24.757Z,5.00
2022-11-10T19:44:16.146Z,4.90
2022-11-10T19:46:11.084Z,4.63
2022-11-10T19:48:02.807Z,5.50
2022-11-10T19:49:54.214Z,5.73
2022-11-10T19:51:47.041Z,5.20
2022-11-10T19:53:38.811Z,4.73
2022-11-10T19:55:32.906Z,5.23
2022-11-10T19:57:24.248Z,5.80
2022-11-10T19:59:18.191Z,6.07
2022-11-10T20:01:10.826Z,5.90
2022-11-10T20:03:02.388Z,5.87
2022-11-10T20:05:11.159Z,7.00
2022-11-10T20:07:21.818Z,6.03
2022-11-10T20:09:13.643Z,8.70
2022-11-10T20:11:07.702Z,10.17
2022-11-10T20:12:59.491Z,10.63
2022-11-10T20:14:51.014Z,9.47
2022-11-10T20:16:43.283Z,8.10
2022-11-10T20:18:35.874Z,8.43
2022-11-10T20:20:27.108Z,8.43
2022-11-10T20:22:20.017Z,7.67
2022-11-10T20:24:11.704Z,7.13
2022-11-10T20:26:04.951Z,7.63
2022-11-10T20:27:57.016Z,7.07
2022-11-10T20:29:48.550Z,7.17
2022-11-10T20:31:39.940Z,6.10
2022-11-10T20:33:32.995Z,6.93
2022-11-10T20:35:24.776Z,7.57
2022-11-10T20:37:16.217Z,12.27
2022-11-10T20:39:09.104Z,11.20
2022-11-10T20:41:06.053Z,8.10
2022-11-10T20:42:57.824Z,8.00
2022-11-10T20:44:49.299Z,8.03
2022-11-10T20:46:53.907Z,8.53
2022-11-10T20:48:47.935Z,7.60
2022-11-10T20:50:41.292Z,8.30
2022-11-10T20:52:34.257Z,8.57
2022-11-10T20:54:27.149Z,7.67
2022-11-10T20:56:18.970Z,8.67
2022-11-10T20:58:10.347Z,8.80
2022-11-10T21:00:01.862Z,8.63
2022-11-10T21:01:53.369Z,8.60
2022-11-10T21:03:44.852Z,9.17
2022-11-10T21:05:36.261Z,8.07
2022-11-10T21:07:27.830Z,8.40
2022-11-10T21:09:19.937Z,8.23
2022-11-10T21:11:32.943Z,7.77
2022-11-10T21:13:25.479Z,7.67
2022-11-10T21:15:17.514Z,7.73
2022-11-10T21:17:08.946Z,7.13
2022-11-10T21:19:01.309Z,7.50
2022-11-10T21:20:54.111Z,7.67
2022-11-10T21:22:45.816Z,9.13
2022-11-10T21:24:37.339Z,7.90
2022-11-10T21:26:30.619Z,7.17
2022-11-10T21:28:22.330Z,7.77
2022-11-10T21:30:22.668Z,7.70
2022-11-10T21:32:14.520Z,6.70
2022-11-10T21:34:06.404Z,8.07
2022-11-10T21:35:58.062Z,7.27
2022-11-10T21:37:50.042Z,8.20
2022-11-10T21:39:42.276Z,7.90
2022-11-10T21:41:35.234Z,9.10
2022-11-10T21:43:26.864Z,9.97
2022-11-10T21:45:18.345Z,9.60
2022-11-10T21:47:10.525Z,10.03
2022-11-10T21:49:06.263Z,10.50
2022-11-10T21:51:01.347Z,9.97
2022-11-10T21:52:53.016Z,10.13
2022-11-10T21:54:44.404Z,10.57
2022-11-10T21:56:37.124Z,10.80
2022-11-10T21:58:29.012Z,10.40
2022-11-10T22:00:20.958Z,10.93
2022-11-10T22:02:14.624Z,10.60
2022-11-10T22:04:06.247Z,9.30
2022-11-10T22:06:02.818Z,9.50
2022-11-10T22:07:54.575Z,10.03
2022-11-10T22:10:03.873Z,9.37
2022-11-10T22:12:14.192Z,9.00
2022-11-10T22:14:29.805Z,9.20
2022-11-10T22:16:42.295Z,8.70
2022-11-10T22:18:41.173Z,9.27
2022-11-10T22:20:32.491Z,8.90
2022-11-10T22:22:23.932Z,9.53
2022-11-10T22:24:26.538Z,9.40
2022-11-10T22:26:18.351Z,9.90
2022-11-10T22:28:11.251Z,10.83
2022-11-10T22:30:03.054Z,11.03
2022-11-10T22:31:54.503Z,10.27
2022-11-10T22:33:45.777Z,10.70
2022-11-10T22:35:46.025Z,11.63
2022-11-10T22:37:37.581Z,11.20
2022-11-10T22:39:49.331Z,9.77
2022-11-10T22:42:00.552Z,9.67
2022-11-10T22:44:04.485Z,9.97
2022-11-10T22:45:55.863Z,9.70
2022-11-10T22:48:04.489Z,9.90
2022-11-10T22:49:56.252Z,10.00
2022-11-10T22:51:49.163Z,10.30
2022-11-10T22:53:40.806Z,9.37
2022-11-10T22:55:32.471Z,9.93
2022-11-10T22:57:23.884Z,9.87
2022-11-10T22:59:16.791Z,9.77
2022-11-10T23:01:09.971Z,10.07
2022-11-10T23:03:01.364Z,10.50
2022-11-10T23:04:53.093Z,8.73
2022-11-10T23:06:44.654Z,9.33
2022-11-10T23:08:36.918Z,9.63
2022-11-10T23:10:28.641Z,9.97
2022-11-10T23:12:20.182Z,9.73
2022-11-10T23:14:12.351Z,9.70
2022-11-10T23:16:07.562Z,9.10
2022-11-10T23:18:05.255Z,9.37
2022-11-10T23:19:58.359Z,9.37
2022-11-10T23:21:49.888Z,9.10
2022-11-10T23:23:43.151Z,9.73
2022-11-10T23:25:35.058Z,9.67
2022-11-10T23:27:26.467Z,9.83
2022-11-10T23:29:17.876Z,10.33
2022-11-10T23:31:13.141Z,9.40
2022-11-10T23:33:04.793Z,9.37
2022-11-10T23:34:56.500Z,10.27
2022-11-10T23:36:47.974Z,9.40
2022-11-10T23:38:39.886Z,9.73
2022-11-10T23:40:31.300Z,9.70
2022-11-10T23:42:22.887Z,9.87
2022-11-10T23:44:14.356Z,10.20
2022-11-10T23:46:08.085Z,9.93
2022-11-10T23:48:06.872Z,9.77
2022-11-10T23:49:58.845Z,8.93
2022-11-10T23:51:50.381Z,9.43
2022-11-10T23:53:41.998Z,9.53
2022-11-10T23:55:33.634Z,10.13
2022-11-10T23:57:25.098Z,9.60
2022-11-10T23:59:16.615Z,9.80
